createdAt,value
2024-05-09T00:00:40.584Z,87.69
2024-05-09T00:01:38.989Z,87.49
2024-05-09T00:02:38.992Z,87.69
2024-05-09T00:03:39.084Z,87.18
2024-05-09T00:04:39.018Z,87.42
2024-05-09T00:05:39.126Z,87.18
2024-05-09T00:06:38.886Z,87.28
2024-05-09T00:07:38.847Z,87.38
2024-05-09T00:08:38.941Z,87.22
2024-05-09T00:09:38.829Z,87.73
2024-05-09T00:10:40.040Z,87.63
2024-05-09T00:11:38.904Z,87.63
2024-05-09T00:12:38.776Z,87.52
2024-05-09T00:13:38.828Z,88.35
2024-05-09T00:14:39.069Z,88.35
2024-05-09T00:15:38.842Z,88.04
2024-05-09T00:16:38.722Z,88.80
2024-05-09T00:17:38.970Z,88.96
2024-05-09T00:18:38.812Z,88.70
2024-05-09T00:19:38.956Z,88.90
2024-05-09T00:20:40.948Z,88.80
2024-05-09T00:21:38.653Z,88.66
2024-05-09T00:22:38.786Z,88.90
2024-05-09T00:23:38.734Z,88.29
2024-05-09T00:24:38.671Z,88.76
2024-05-09T00:25:38.663Z,89.01
2024-05-09T00:26:38.723Z,88.39
2024-05-09T00:27:38.644Z,88.59
2024-05-09T00:28:38.670Z,89.01
2024-05-09T00:29:38.657Z,89.42
2024-05-09T00:30:38.674Z,89.01
2024-05-09T00:31:38.576Z,89.05
2024-05-09T00:32:38.755Z,89.01
2024-05-09T00:33:38.787Z,88.90
2024-05-09T00:34:38.512Z,88.80
2024-05-09T00:35:38.991Z,89.11
2024-05-09T00:36:38.533Z,89.01
2024-05-09T00:37:38.499Z,89.01
2024-05-09T00:38:38.526Z,89.05
2024-05-09T00:39:38.501Z,89.46
2024-05-09T00:40:41.123Z,89.77
2024-05-09T00:41:38.532Z,89.46
2024-05-09T00:42:38.474Z,89.56
2024-05-09T00:43:38.418Z,90.08
2024-05-09T00:44:38.513Z,89.36
2024-05-09T00:45:38.408Z,89.36
2024-05-09T00:46:38.416Z,89.46
2024-05-09T00:47:38.534Z,89.46
2024-05-09T00:48:38.590Z,89.25
2024-05-09T00:49:38.454Z,89.36
2024-05-09T00:50:38.886Z,89.36
2024-05-09T00:51:38.343Z,89.46
2024-05-09T00:52:38.319Z,89.91
2024-05-09T00:53:38.408Z,89.56
2024-05-09T00:54:38.299Z,89.50
2024-05-09T00:55:38.335Z,89.77
2024-05-09T00:56:38.434Z,89.67
2024-05-09T00:57:38.281Z,89.91
2024-05-09T00:58:38.243Z,90.12
2024-05-09T00:59:38.437Z,89.71
2024-05-09T01:00:40.487Z,89.81
2024-05-09T01:01:38.275Z,90.01
2024-05-09T01:02:38.464Z,89.71
2024-05-09T01:03:38.598Z,90.01
2024-05-09T01:04:38.707Z,90.01
2024-05-09T01:05:38.239Z,90.47
2024-05-09T01:06:38.153Z,90.26
2024-05-09T01:07:38.134Z,90.67
2024-05-09T01:08:38.331Z,90.99
2024-05-09T01:09:38.139Z,91.09
2024-05-09T01:10:38.125Z,90.67
2024-05-09T01:11:38.329Z,90.67
2024-05-09T01:12:38.121Z,90.78
2024-05-09T01:13:38.081Z,90.67
2024-05-09T01:14:38.180Z,90.37
2024-05-09T01:15:38.066Z,90.37
2024-05-09T01:16:38.043Z,90.78
2024-05-09T01:17:38.229Z,90.57
2024-05-09T01:18:38.167Z,90.57
2024-05-09T01:19:38.074Z,90.37
2024-05-09T01:20:42.295Z,90.57
2024-05-09T01:21:39.076Z,91.09
2024-05-09T01:22:37.984Z,90.67
2024-05-09T01:23:38.100Z,90.88
2024-05-09T01:24:37.950Z,91.09
2024-05-09T01:25:38.064Z,91.09
2024-05-09T01:26:38.011Z,90.99
2024-05-09T01:27:37.957Z,91.03
2024-05-09T01:28:37.936Z,91.13
2024-05-09T01:29:37.959Z,91.13
2024-05-09T01:30:38.574Z,91.24
2024-05-09T01:31:37.929Z,91.09
2024-05-09T01:32:38.004Z,90.72
2024-05-09T01:33:38.352Z,90.92
2024-05-09T01:34:37.887Z,90.92
2024-05-09T01:35:38.053Z,90.88
2024-05-09T01:36:37.820Z,90.82
2024-05-09T01:37:37.846Z,91.03
2024-05-09T01:38:37.812Z,90.92
2024-05-09T01:39:37.844Z,90.88
2024-05-09T01:40:40.015Z,90.72
2024-05-09T01:41:37.772Z,91.13
2024-05-09T01:42:37.775Z,91.03
2024-05-09T01:43:37.741Z,90.92
2024-05-09T01:44:37.929Z,91.03
2024-05-09T01:45:37.787Z,91.13
2024-05-09T01:46:37.751Z,91.13
2024-05-09T01:47:37.833Z,91.13
2024-05-09T01:48:37.809Z,91.13
2024-05-09T01:49:37.737Z,91.17
2024-05-09T01:50:41.190Z,91.13
2024-05-09T01:51:38.670Z,90.76
2024-05-09T01:52:37.642Z,91.44
2024-05-09T01:53:37.716Z,90.92
2024-05-09T01:54:38.224Z,91.03
2024-05-09T01:55:37.689Z,91.07
2024-05-09T01:56:37.700Z,91.17
2024-05-09T01:57:37.591Z,91.34
2024-05-09T01:58:37.603Z,91.79
2024-05-09T01:59:37.652Z,91.17
2024-05-09T02:00:41.269Z,91.75
2024-05-09T02:01:55.804Z,91.58
2024-05-09T02:02:38.701Z,91.89
2024-05-09T02:03:37.782Z,91.89
2024-05-09T02:04:37.624Z,91.89
2024-05-09T02:05:37.551Z,91.89
2024-05-09T02:06:37.642Z,91.58
2024-05-09T02:07:37.532Z,91.38
2024-05-09T02:08:37.532Z,91.58
2024-05-09T02:09:37.513Z,91.58
2024-05-09T02:10:37.470Z,92.61
2024-05-09T02:11:37.538Z,92.21
2024-05-09T02:12:37.462Z,92.25
2024-05-09T02:13:37.433Z,92.46
2024-05-09T02:14:37.558Z,92.25
2024-05-09T02:15:37.406Z,92.21
2024-05-09T02:16:37.382Z,91.94
2024-05-09T02:17:37.658Z,92.14
2024-05-09T02:18:37.487Z,92.25
2024-05-09T02:19:37.414Z,92.25
2024-05-09T02:20:37.446Z,92.25
2024-05-09T02:21:37.408Z,92.25
2024-05-09T02:22:37.328Z,92.35
2024-05-09T02:23:37.327Z,92.25
2024-05-09T02:24:37.315Z,92.25
2024-05-09T02:25:37.279Z,92.35
2024-05-09T02:26:37.319Z,92.25
2024-05-09T02:27:37.306Z,92.46
2024-05-09T02:28:37.294Z,92.46
2024-05-09T02:29:37.363Z,92.46
2024-05-09T02:30:40.609Z,92.46
2024-05-09T02:31:37.213Z,91.94
2024-05-09T02:32:37.426Z,92.04
2024-05-09T02:33:37.638Z,92.04
2024-05-09T02:34:37.238Z,92.25
2024-05-09T02:35:37.214Z,92.14
2024-05-09T02:36:37.148Z,92.25
2024-05-09T02:37:37.197Z,92.86
2024-05-09T02:38:37.346Z,92.76
2024-05-09T02:39:37.146Z,92.60
2024-05-09T02:40:39.118Z,92.55
2024-05-09T02:41:37.133Z,92.60
2024-05-09T02:42:37.119Z,92.46
2024-05-09T02:43:37.093Z,91.88
2024-05-09T02:44:37.090Z,92.55
2024-05-09T02:45:37.113Z,92.60
2024-05-09T02:46:37.063Z,92.55
2024-05-09T02:47:37.305Z,91.88
2024-05-09T02:48:37.354Z,92.50
2024-05-09T02:49:37.166Z,92.08
2024-05-09T02:50:39.490Z,92.08
2024-05-09T02:51:36.984Z,92.08
2024-05-09T02:52:37.063Z,92.08
2024-05-09T02:53:37.180Z,92.50
2024-05-09T02:54:36.976Z,92.80
2024-05-09T02:55:36.956Z,91.88
2024-05-09T02:56:37.111Z,92.60
2024-05-09T02:57:36.961Z,92.60
2024-05-09T02:58:36.942Z,92.80
2024-05-09T02:59:36.998Z,92.70
2024-05-09T03:00:40.404Z,92.70
2024-05-09T03:01:38.020Z,92.50
2024-05-09T03:02:36.983Z,92.85
2024-05-09T03:03:37.200Z,92.80
2024-05-09T03:04:36.878Z,92.74
2024-05-09T03:05:37.302Z,92.80
2024-05-09T03:06:36.865Z,92.33
2024-05-09T03:07:36.812Z,92.54
2024-05-09T03:08:36.860Z,92.50
2024-05-09T03:09:36.820Z,92.19
2024-05-09T03:10:38.800Z,92.44
2024-05-09T03:11:36.936Z,92.95
2024-05-09T03:12:39.028Z,92.95
2024-05-09T03:13:36.736Z,92.85
2024-05-09T03:14:36.757Z,93.16
2024-05-09T03:15:36.955Z,92.95
2024-05-09T03:16:36.762Z,93.26
2024-05-09T03:17:37.056Z,93.47
2024-05-09T03:18:36.848Z,93.16
2024-05-09T03:19:36.765Z,93.16
2024-05-09T03:20:37.291Z,92.95
2024-05-09T03:21:36.647Z,93.37
2024-05-09T03:22:36.640Z,92.95
2024-05-09T03:23:36.698Z,93.26
2024-05-09T03:24:36.693Z,93.37
2024-05-09T03:25:36.700Z,92.95
2024-05-09T03:26:36.666Z,92.64
2024-05-09T03:27:36.592Z,92.64
2024-05-09T03:28:36.624Z,92.95
2024-05-09T03:29:36.598Z,92.74
2024-05-09T03:30:41.457Z,92.95
2024-05-09T03:31:37.589Z,92.85
2024-05-09T03:32:36.719Z,92.95
2024-05-09T03:33:36.877Z,92.74
2024-05-09T03:34:36.511Z,93.05
2024-05-09T03:35:36.544Z,93.05
2024-05-09T03:36:36.505Z,93.05
2024-05-09T03:37:36.475Z,93.05
2024-05-09T03:38:36.567Z,93.16
2024-05-09T03:39:36.484Z,93.05
2024-05-09T03:40:36.446Z,93.72
2024-05-09T03:41:36.492Z,93.68
2024-05-09T03:42:36.440Z,93.78
2024-05-09T03:43:36.424Z,93.88
2024-05-09T03:44:36.411Z,93.68
2024-05-09T03:45:36.406Z,93.78
2024-05-09T03:46:36.373Z,93.88
2024-05-09T03:47:36.504Z,93.78
2024-05-09T03:48:36.491Z,93.98
2024-05-09T03:49:36.456Z,93.68
2024-05-09T03:50:37.246Z,93.68
2024-05-09T03:51:36.329Z,93.68
2024-05-09T03:52:36.339Z,93.98
2024-05-09T03:53:36.387Z,93.88
2024-05-09T03:54:36.310Z,93.78
2024-05-09T03:55:36.277Z,93.68
2024-05-09T03:56:36.353Z,93.84
2024-05-09T03:57:36.412Z,93.68
2024-05-09T03:58:36.254Z,93.78
2024-05-09T03:59:36.269Z,93.57
2024-05-09T04:00:39.046Z,93.63
2024-05-09T04:01:36.304Z,93.73
2024-05-09T04:02:36.307Z,93.53
2024-05-09T04:03:36.400Z,93.98
2024-05-09T04:04:36.274Z,93.57
2024-05-09T04:05:36.311Z,93.84
2024-05-09T04:06:36.180Z,93.68
2024-05-09T04:07:36.122Z,93.12
2024-05-09T04:08:36.190Z,93.78
2024-05-09T04:09:36.095Z,93.53
2024-05-09T04:10:36.150Z,93.63
2024-05-09T04:11:36.184Z,93.73
2024-05-09T04:12:36.074Z,93.63
2024-05-09T04:13:36.119Z,93.63
2024-05-09T04:14:36.171Z,93.63
2024-05-09T04:15:36.043Z,93.94
2024-05-09T04:16:36.035Z,93.73
2024-05-09T04:17:36.373Z,93.53
2024-05-09T04:18:36.143Z,93.32
2024-05-09T04:19:36.040Z,93.53
2024-05-09T04:20:39.420Z,93.53
2024-05-09T04:21:36.999Z,93.63
2024-05-09T04:22:35.987Z,93.63
2024-05-09T04:23:36.051Z,93.63
2024-05-09T04:24:36.051Z,93.94
2024-05-09T04:25:35.957Z,93.84
2024-05-09T04:26:35.954Z,93.94
2024-05-09T04:27:35.943Z,93.84
2024-05-09T04:28:35.890Z,93.63
2024-05-09T04:29:36.012Z,93.63
2024-05-09T04:30:39.331Z,93.59
2024-05-09T04:31:36.891Z,93.63
2024-05-09T04:32:36.094Z,93.79
2024-05-09T04:33:36.204Z,93.53
2024-05-09T04:34:35.859Z,93.69
2024-05-09T04:35:35.931Z,93.49
2024-05-09T04:36:35.804Z,93.59
2024-05-09T04:37:35.782Z,93.69
2024-05-09T04:38:35.817Z,93.59
2024-05-09T04:39:35.764Z,93.49
2024-05-09T04:40:37.255Z,93.59
2024-05-09T04:41:35.868Z,93.59
2024-05-09T04:42:35.771Z,93.79
2024-05-09T04:43:35.810Z,93.59
2024-05-09T04:44:35.790Z,93.59
2024-05-09T04:45:35.996Z,93.79
2024-05-09T04:46:35.714Z,93.59
2024-05-09T04:47:35.931Z,93.79
2024-05-09T04:48:35.732Z,93.79
2024-05-09T04:49:35.786Z,93.79
2024-05-09T04:50:38.695Z,93.59
2024-05-09T04:51:35.637Z,93.90
2024-05-09T04:52:35.669Z,93.69
2024-05-09T04:53:35.715Z,93.85
2024-05-09T04:54:36.654Z,93.65
2024-05-09T04:55:35.579Z,93.54
2024-05-09T04:56:35.615Z,93.75
2024-05-09T04:57:35.590Z,93.59
2024-05-09T04:58:35.611Z,93.65
2024-05-09T04:59:35.580Z,93.85
2024-05-09T05:00:37.653Z,93.85
2024-05-09T05:01:35.601Z,93.65
2024-05-09T05:02:35.609Z,93.54
2024-05-09T05:03:35.697Z,93.54
2024-05-09T05:04:35.543Z,93.85
2024-05-09T05:05:35.557Z,93.60
2024-05-09T05:06:35.479Z,93.71
2024-05-09T05:07:35.484Z,93.81
2024-05-09T05:08:35.572Z,93.81
2024-05-09T05:09:35.439Z,93.60
2024-05-09T05:10:36.815Z,93.56
2024-05-09T05:11:35.740Z,92.74
2024-05-09T05:12:35.759Z,93.46
2024-05-09T05:13:37.865Z,92.53
2024-05-09T05:14:35.442Z,92.84
2024-05-09T05:15:35.363Z,93.01
2024-05-09T05:16:35.370Z,92.59
2024-05-09T05:17:35.560Z,92.71
2024-05-09T05:18:35.436Z,92.83
2024-05-09T05:19:35.694Z,91.97
2024-05-09T05:20:35.381Z,91.82
2024-05-09T05:21:35.317Z,91.57
2024-05-09T05:22:35.270Z,90.16
2024-05-09T05:23:35.449Z,89.54
2024-05-09T05:24:35.268Z,89.19
2024-05-09T05:25:35.292Z,88.23
2024-05-09T05:26:35.364Z,87.67
2024-05-09T05:27:35.223Z,86.81
2024-05-09T05:28:35.226Z,86.55
2024-05-09T05:29:35.381Z,86.55
2024-05-09T05:30:35.393Z,85.22
2024-05-09T05:31:35.248Z,84.91
2024-05-09T05:32:35.285Z,85.36
2024-05-09T05:33:35.357Z,85.11
2024-05-09T05:34:35.171Z,85.52
2024-05-09T05:35:35.281Z,84.77
2024-05-09T05:36:35.160Z,85.14
2024-05-09T05:37:35.134Z,84.48
2024-05-09T05:38:35.138Z,83.69
2024-05-09T05:39:35.230Z,82.39
2024-05-09T05:40:43.199Z,81.32
2024-05-09T05:41:35.091Z,79.86
2024-05-09T05:42:35.037Z,79.21
2024-05-09T05:43:35.067Z,79.52
2024-05-09T05:44:35.083Z,79.25
2024-05-09T05:45:35.061Z,79.32
2024-05-09T05:46:35.008Z,78.56
2024-05-09T05:47:35.269Z,77.71
2024-05-09T05:48:35.131Z,76.86
2024-05-09T05:49:35.062Z,76.01
2024-05-09T05:50:37.384Z,75.67
2024-05-09T05:51:34.948Z,75.30
2024-05-09T05:52:34.941Z,76.01
2024-05-09T05:53:35.086Z,75.46
2024-05-09T05:54:34.932Z,75.46
2024-05-09T05:55:34.910Z,74.31
2024-05-09T05:56:34.984Z,74.48
2024-05-09T05:57:34.876Z,74.68
2024-05-09T05:58:34.871Z,74.38
2024-05-09T05:59:34.984Z,73.67
2024-05-09T06:00:38.553Z,73.46
2024-05-09T06:01:35.880Z,72.75
2024-05-09T06:02:34.938Z,73.87
2024-05-09T06:03:34.951Z,73.06
2024-05-09T06:04:34.849Z,73.70
2024-05-09T06:05:34.851Z,74.41
2024-05-09T06:06:34.800Z,75.23
2024-05-09T06:07:34.794Z,75.43
2024-05-09T06:08:34.876Z,74.58
2024-05-09T06:09:34.750Z,75.19
2024-05-09T06:10:38.880Z,76.01
2024-05-09T06:11:35.796Z,73.16
2024-05-09T06:12:34.720Z,73.19
2024-05-09T06:13:34.707Z,75.60
2024-05-09T06:14:34.862Z,74.18
2024-05-09T06:15:34.729Z,73.83
2024-05-09T06:16:34.684Z,72.41
2024-05-09T06:17:34.833Z,72.65
2024-05-09T06:18:34.980Z,73.57
2024-05-09T06:19:34.685Z,73.77
2024-05-09T06:20:37.368Z,74.07
2024-05-09T06:21:34.824Z,75.29
2024-05-09T06:22:34.633Z,75.40
2024-05-09T06:23:34.784Z,73.53
2024-05-09T06:24:34.585Z,74.10
2024-05-09T06:25:34.662Z,74.04
2024-05-09T06:26:34.632Z,73.43
2024-05-09T06:27:34.596Z,73.22
2024-05-09T06:28:34.522Z,73.33
2024-05-09T06:29:34.581Z,73.13
2024-05-09T06:30:38.962Z,73.63
2024-05-09T06:31:35.600Z,73.80
2024-05-09T06:32:34.535Z,74.31
2024-05-09T06:33:34.763Z,73.06
2024-05-09T06:34:34.659Z,72.85
2024-05-09T06:35:34.758Z,73.22
2024-05-09T06:36:34.468Z,72.48
2024-05-09T06:37:34.439Z,72.78
2024-05-09T06:38:34.577Z,72.48
2024-05-09T06:39:34.422Z,72.99
2024-05-09T06:40:38.305Z,72.48
2024-05-09T06:41:35.428Z,71.57
2024-05-09T06:42:34.384Z,70.76
2024-05-09T06:43:34.362Z,71.77
2024-05-09T06:44:34.392Z,72.55
2024-05-09T06:45:34.354Z,72.01
2024-05-09T06:46:34.318Z,72.01
2024-05-09T06:47:34.503Z,69.98
2024-05-09T06:48:34.500Z,69.57
2024-05-09T06:49:34.325Z,68.80
2024-05-09T06:50:37.785Z,69.37
2024-05-09T06:51:35.272Z,70.49
2024-05-09T06:52:34.253Z,70.25
2024-05-09T06:53:34.422Z,70.12
2024-05-09T06:54:34.250Z,69.58
2024-05-09T06:55:34.213Z,68.16
2024-05-09T06:56:34.255Z,68.37
2024-05-09T06:57:34.196Z,66.55
2024-05-09T06:58:34.181Z,64.83
2024-05-09T06:59:34.388Z,65.30
2024-05-09T07:00:38.679Z,66.01
2024-05-09T07:01:35.213Z,66.82
2024-05-09T07:02:34.286Z,68.84
2024-05-09T07:03:34.276Z,67.72
2024-05-09T07:04:34.240Z,68.80
2024-05-09T07:05:34.190Z,68.60
2024-05-09T07:06:34.098Z,68.10
2024-05-09T07:07:34.078Z,66.78
2024-05-09T07:08:34.282Z,64.70
2024-05-09T07:09:34.070Z,66.21
2024-05-09T07:10:35.666Z,67.90
2024-05-09T07:11:34.241Z,68.80
2024-05-09T07:12:34.199Z,68.37
2024-05-09T07:13:34.022Z,66.86
2024-05-09T07:14:36.028Z,67.97
2024-05-09T07:15:33.994Z,66.05
2024-05-09T07:16:33.985Z,66.75
2024-05-09T07:17:34.278Z,66.12
2024-05-09T07:18:34.103Z,65.88
2024-05-09T07:19:34.026Z,64.24
2024-05-09T07:20:35.137Z,63.26
2024-05-09T07:21:33.961Z,64.58
2024-05-09T07:22:33.933Z,63.59
2024-05-09T07:23:34.234Z,64.50
2024-05-09T07:24:33.898Z,64.47
2024-05-09T07:25:33.886Z,63.64
2024-05-09T07:26:33.961Z,65.28
2024-05-09T07:27:33.986Z,62.59
2024-05-09T07:28:33.914Z,63.79
2024-05-09T07:29:36.281Z,62.05
2024-05-09T07:30:34.958Z,63.70
2024-05-09T07:31:33.827Z,64.17
2024-05-09T07:32:34.012Z,63.16
2024-05-09T07:33:33.943Z,63.70
2024-05-09T07:34:33.922Z,61.89
2024-05-09T07:35:33.990Z,61.96
2024-05-09T07:36:33.770Z,62.34
2024-05-09T07:37:33.805Z,62.30
2024-05-09T07:38:33.777Z,61.00
2024-05-09T07:39:33.720Z,59.52
2024-05-09T07:40:36.545Z,60.22
2024-05-09T07:41:33.924Z,58.81
2024-05-09T07:42:33.859Z,60.22
2024-05-09T07:43:33.689Z,60.09
2024-05-09T07:44:33.744Z,59.11
2024-05-09T07:50:34.292Z,60.57
2024-05-09T07:52:23.114Z,60.03
2024-05-09T07:53:33.202Z,58.60
2024-05-09T07:53:42.057Z,59.41
2024-05-09T07:54:34.714Z,59.17
2024-05-09T07:55:33.621Z,57.97
2024-05-09T07:56:33.641Z,58.67
2024-05-09T07:57:33.529Z,59.27
2024-05-09T07:58:33.536Z,59.34
2024-05-09T07:59:37.628Z,57.67
2024-05-09T08:00:33.649Z,58.17
2024-05-09T08:01:33.658Z,58.77
2024-05-09T08:02:33.693Z,57.24
2024-05-09T08:03:33.749Z,57.87
2024-05-09T08:04:33.603Z,59.17
2024-05-09T08:05:33.636Z,59.98
2024-05-09T08:06:33.471Z,58.40
2024-05-09T08:07:33.438Z,59.38
2024-05-09T08:08:33.422Z,57.94
2024-05-09T08:09:34.656Z,58.62
2024-05-09T08:10:33.394Z,57.59
2024-05-09T08:11:33.410Z,57.66
2024-05-09T08:12:33.368Z,59.13
2024-05-09T08:13:33.372Z,56.52
2024-05-09T08:14:33.377Z,55.43
2024-05-09T08:15:33.382Z,55.38
2024-05-09T08:16:33.379Z,56.58
2024-05-09T08:17:33.444Z,55.85
2024-05-09T08:18:33.573Z,54.07
2024-05-09T08:19:33.293Z,54.63
2024-05-09T08:20:35.310Z,55.16
2024-05-09T08:21:33.307Z,54.85
2024-05-09T08:22:33.239Z,54.02
2024-05-09T08:23:33.239Z,52.82
2024-05-09T08:24:33.255Z,53.02
2024-05-09T08:25:33.219Z,53.02
2024-05-09T08:26:33.221Z,53.80
2024-05-09T08:27:33.231Z,53.22
2024-05-09T08:28:33.198Z,54.40
2024-05-09T08:29:33.171Z,52.49
2024-05-09T08:30:37.007Z,54.97
2024-05-09T08:31:34.317Z,53.25
2024-05-09T08:32:33.214Z,54.05
2024-05-09T08:33:33.442Z,51.37
2024-05-09T08:34:33.234Z,52.29
2024-05-09T08:35:33.123Z,51.89
2024-05-09T08:36:33.144Z,52.80
2024-05-09T08:37:37.919Z,52.59
2024-05-09T08:38:33.103Z,52.97
2024-05-09T08:39:33.120Z,53.97
2024-05-09T08:40:35.984Z,52.87
2024-05-09T08:41:33.055Z,52.64
2024-05-09T08:42:33.075Z,51.64
2024-05-09T08:43:33.018Z,51.62
2024-05-09T08:44:33.031Z,50.81
2024-05-09T08:45:33.007Z,50.62
2024-05-09T08:46:33.053Z,51.01
2024-05-09T08:47:33.016Z,52.34
2024-05-09T08:48:33.286Z,52.26
2024-05-09T08:49:33.016Z,52.37
2024-05-09T08:50:38.494Z,52.64
2024-05-09T08:51:33.955Z,54.25
2024-05-09T08:52:32.913Z,53.05
2024-05-09T08:53:32.899Z,52.14
2024-05-09T08:54:32.901Z,55.05
2024-05-09T08:55:32.954Z,52.14
2024-05-09T08:56:32.918Z,52.55
2024-05-09T08:57:32.892Z,52.94
2024-05-09T08:58:32.844Z,52.14
2024-05-09T08:59:32.865Z,54.68
2024-05-09T09:00:36.968Z,53.55
2024-05-09T09:01:33.921Z,52.75
2024-05-09T09:02:33.331Z,53.12
2024-05-09T09:03:32.977Z,53.22
2024-05-09T09:04:32.888Z,51.44
2024-05-09T09:05:32.915Z,51.94
2024-05-09T09:06:32.765Z,51.94
2024-05-09T09:07:32.787Z,52.72
2024-05-09T09:08:32.783Z,52.69
2024-05-09T09:09:32.761Z,53.37
2024-05-09T09:10:33.471Z,51.49
2024-05-09T09:11:32.771Z,50.21
2024-05-09T09:12:32.751Z,51.42
2024-05-09T09:13:32.684Z,52.59
2024-05-09T09:14:32.713Z,50.69
2024-05-09T09:15:33.209Z,50.71
2024-05-09T09:16:32.694Z,52.29
2024-05-09T09:17:32.749Z,50.49
2024-05-09T09:18:33.047Z,50.09
2024-05-09T09:19:32.673Z,50.26
2024-05-09T09:20:36.514Z,49.58
2024-05-09T09:21:32.671Z,50.92
2024-05-09T09:22:32.573Z,51.82
2024-05-09T09:23:32.580Z,51.12
2024-05-09T09:24:32.710Z,50.31
2024-05-09T09:25:32.534Z,51.01
2024-05-09T09:26:32.548Z,49.91
2024-05-09T09:27:32.533Z,49.81
2024-05-09T09:28:32.527Z,51.69
2024-05-09T09:29:32.495Z,50.54
2024-05-09T09:30:37.299Z,50.07
2024-05-09T09:31:32.501Z,50.69
2024-05-09T09:32:32.578Z,52.17
2024-05-09T09:33:32.964Z,49.08
2024-05-09T09:34:32.681Z,51.39
2024-05-09T09:35:32.429Z,49.11
2024-05-09T09:36:32.448Z,50.71
2024-05-09T09:37:32.421Z,50.62
2024-05-09T09:38:32.459Z,50.51
2024-05-09T09:39:32.428Z,52.55
2024-05-09T09:40:34.806Z,51.54
2024-05-09T09:41:32.365Z,51.42
2024-05-09T09:42:32.426Z,50.81
2024-05-09T09:43:32.344Z,50.42
2024-05-09T09:44:33.071Z,52.19
2024-05-09T09:45:32.370Z,53.19
2024-05-09T09:46:32.343Z,51.82
2024-05-09T09:47:32.418Z,52.52
2024-05-09T09:48:32.526Z,51.72
2024-05-09T09:49:32.338Z,52.55
2024-05-09T09:50:34.805Z,52.14
2024-05-09T09:51:32.286Z,53.25
2024-05-09T09:52:32.347Z,53.02
2024-05-09T09:53:32.222Z,51.49
2024-05-09T09:54:32.305Z,52.22
2024-05-09T09:55:32.202Z,53.12
2024-05-09T09:56:32.232Z,52.69
2024-05-09T09:57:32.253Z,52.92
2024-05-09T09:58:32.209Z,53.32
2024-05-09T09:59:32.157Z,53.02
2024-05-09T10:00:33.491Z,52.84
2024-05-09T10:01:32.269Z,52.82
2024-05-09T10:02:32.352Z,52.42
2024-05-09T10:03:32.347Z,52.62
2024-05-09T10:04:32.213Z,52.92
2024-05-09T10:05:32.316Z,53.22
2024-05-09T10:06:32.139Z,53.19
2024-05-09T10:07:32.071Z,53.39
2024-05-09T10:08:32.075Z,52.01
2024-05-09T10:09:32.120Z,53.05
2024-05-09T10:10:33.230Z,53.34
2024-05-09T10:11:34.897Z,54.12
2024-05-09T10:12:33.219Z,53.42
2024-05-09T10:13:32.059Z,53.42
2024-05-09T10:14:31.996Z,53.80
2024-05-09T10:15:32.020Z,54.50
2024-05-09T10:16:32.033Z,52.47
2024-05-09T10:17:32.024Z,51.89
2024-05-09T10:18:34.122Z,51.77
2024-05-09T10:19:32.138Z,52.59
2024-05-09T10:20:32.952Z,51.77
2024-05-09T10:21:31.943Z,51.34
2024-05-09T10:22:31.902Z,51.37
2024-05-09T10:23:31.883Z,51.67
2024-05-09T10:24:31.918Z,52.59
2024-05-09T10:25:31.968Z,51.97
2024-05-09T10:26:31.847Z,51.54
2024-05-09T10:27:31.903Z,52.24
2024-05-09T10:28:31.875Z,51.54
2024-05-09T10:29:31.824Z,52.87
2024-05-09T10:30:35.966Z,52.80
2024-05-09T10:31:31.846Z,52.89
2024-05-09T10:32:31.837Z,52.69
2024-05-09T10:33:31.940Z,52.59
2024-05-09T10:34:31.965Z,52.12
2024-05-09T10:35:31.730Z,52.52
2024-05-09T10:36:31.742Z,53.30
2024-05-09T10:37:31.823Z,51.29
2024-05-09T10:38:31.735Z,52.39
2024-05-09T10:39:31.794Z,51.77
2024-05-09T10:40:32.242Z,51.37
2024-05-09T10:41:31.663Z,53.05
2024-05-09T10:42:31.768Z,52.89
2024-05-09T10:43:31.734Z,49.22
2024-05-09T10:44:31.654Z,50.32
2024-05-09T10:45:31.657Z,51.79
2024-05-09T10:46:31.751Z,50.42
2024-05-09T10:47:31.704Z,50.22
2024-05-09T10:48:31.684Z,50.72
2024-05-09T10:49:31.673Z,51.34
2024-05-09T10:50:34.271Z,52.17
2024-05-09T10:51:31.562Z,51.57
2024-05-09T10:52:31.556Z,52.77
2024-05-09T10:53:31.536Z,50.76
2024-05-09T10:54:31.548Z,50.64
2024-05-09T10:55:31.585Z,52.55
2024-05-09T10:56:31.503Z,52.22
2024-05-09T10:57:31.524Z,51.72
2024-05-09T10:58:31.471Z,52.02
2024-05-09T10:59:31.467Z,51.74
2024-05-09T11:00:35.769Z,53.94
2024-05-09T11:01:31.575Z,51.94
2024-05-09T11:02:31.661Z,51.34
2024-05-09T11:03:31.586Z,52.12
2024-05-09T11:04:31.540Z,50.44
2024-05-09T11:05:31.501Z,52.92
2024-05-09T11:06:31.441Z,51.14
2024-05-09T11:07:31.446Z,54.62
2024-05-09T11:08:31.373Z,52.12
2024-05-09T11:09:31.357Z,52.22
2024-05-09T11:10:33.992Z,50.32
2024-05-09T11:11:31.403Z,51.44
2024-05-09T11:12:31.392Z,51.82
2024-05-09T11:13:31.615Z,51.29
2024-05-09T11:14:31.322Z,50.70
2024-05-09T11:15:31.345Z,51.42
2024-05-09T11:16:31.377Z,51.54
2024-05-09T11:17:31.337Z,51.94
2024-05-09T11:18:35.107Z,51.74
2024-05-09T11:19:32.338Z,51.37
2024-05-09T11:20:34.829Z,50.29
2024-05-09T11:21:31.260Z,52.69
2024-05-09T11:22:31.213Z,51.99
2024-05-09T11:23:31.191Z,51.87
2024-05-09T11:24:31.195Z,53.14
2024-05-09T11:25:31.213Z,52.34
2024-05-09T11:26:31.172Z,50.54
2024-05-09T11:27:31.182Z,50.74
2024-05-09T11:28:31.133Z,50.14
2024-05-09T11:29:31.133Z,50.64
2024-05-09T11:30:32.368Z,50.46
2024-05-09T11:31:31.360Z,50.44
2024-05-09T11:32:31.276Z,51.17
2024-05-09T11:33:31.161Z,51.19
2024-05-09T11:34:31.171Z,52.19
2024-05-09T11:35:31.055Z,52.39
2024-05-09T11:36:31.126Z,52.29
2024-05-09T11:37:34.041Z,51.97
2024-05-09T11:38:31.019Z,52.74
2024-05-09T11:39:31.064Z,50.76
2024-05-09T11:40:34.319Z,51.67
2024-05-09T11:41:31.001Z,52.34
2024-05-09T11:42:31.041Z,51.94
2024-05-09T11:43:31.087Z,51.52
2024-05-09T11:44:30.959Z,51.25
2024-05-09T11:45:31.030Z,52.52
2024-05-09T11:46:30.971Z,49.24
2024-05-09T11:47:39.050Z,49.94
2024-05-09T11:48:31.544Z,48.57
2024-05-09T11:49:30.990Z,48.96
2024-05-09T11:50:35.325Z,47.66
2024-05-09T11:51:31.989Z,47.26
2024-05-09T11:52:30.904Z,48.16
2024-05-09T11:53:30.879Z,49.04
2024-05-09T11:54:30.924Z,51.92
2024-05-09T11:55:31.036Z,50.49
2024-05-09T11:56:30.896Z,48.97
2024-05-09T11:57:30.983Z,48.19
2024-05-09T11:58:30.822Z,48.19
2024-05-09T11:59:30.845Z,48.39
2024-05-09T12:00:36.618Z,49.11
2024-05-09T12:01:32.124Z,50.82
2024-05-09T12:02:30.909Z,51.29
2024-05-09T12:03:30.934Z,50.20
2024-05-09T12:04:30.829Z,51.50
2024-05-09T12:05:30.824Z,50.72
2024-05-09T12:06:30.791Z,50.32
2024-05-09T12:07:30.823Z,49.84
2024-05-09T12:08:30.712Z,50.54
2024-05-09T12:09:30.708Z,50.74
2024-05-09T12:10:33.841Z,50.54
2024-05-09T12:11:31.725Z,51.12
2024-05-09T12:12:30.691Z,49.22
2024-05-09T12:13:30.669Z,48.24
2024-05-09T12:14:30.683Z,47.84
2024-05-09T12:15:30.712Z,49.16
2024-05-09T12:16:30.709Z,48.57
2024-05-09T12:17:30.648Z,46.78
2024-05-09T12:18:30.696Z,48.58
2024-05-09T12:19:30.636Z,47.19
2024-05-09T12:21:30.579Z,48.96
2024-05-09T12:22:30.526Z,49.07
2024-05-09T12:23:30.522Z,48.44
2024-05-09T12:24:30.565Z,48.04
2024-05-09T12:25:30.545Z,46.24
2024-05-09T12:26:30.567Z,46.44
2024-05-09T12:27:30.543Z,45.86
2024-05-09T12:28:30.512Z,45.18
2024-05-09T12:29:30.475Z,46.96
2024-05-09T12:30:36.651Z,45.86
2024-05-09T12:31:31.563Z,46.96
2024-05-09T12:32:30.504Z,47.46
2024-05-09T12:33:30.458Z,46.76
2024-05-09T12:34:30.462Z,45.76
2024-05-09T12:35:30.398Z,45.86
2024-05-09T12:36:30.470Z,45.86
2024-05-09T12:37:30.382Z,47.86
2024-05-09T12:38:30.396Z,47.74
2024-05-09T12:39:30.780Z,48.54
2024-05-09T12:40:36.231Z,48.54
2024-05-09T12:41:31.312Z,48.84
2024-05-09T12:42:32.530Z,49.62
2024-05-09T12:43:30.404Z,47.64
2024-05-09T12:44:30.326Z,47.72
2024-05-09T12:45:30.320Z,49.52
2024-05-09T12:46:30.345Z,46.72
2024-05-09T12:47:30.349Z,47.54
2024-05-09T12:48:30.397Z,48.44
2024-05-09T12:49:30.390Z,47.94
2024-05-09T12:50:33.126Z,47.46
2024-05-09T12:51:30.264Z,46.96
2024-05-09T12:52:30.218Z,47.66
2024-05-09T12:53:30.201Z,47.56
2024-05-09T12:54:30.231Z,48.96
2024-05-09T12:55:36.411Z,49.57
2024-05-09T12:56:31.149Z,47.26
2024-05-09T12:57:30.193Z,47.26
2024-05-09T12:58:30.169Z,47.06